createdAt,value
2023-04-05T00:00:22.747Z,22.30
2023-04-05T00:03:11.297Z,26.00
2023-04-05T00:05:39.385Z,25.80
2023-04-05T00:08:13.638Z,32.60
2023-04-05T00:10:41.725Z,32.10
2023-04-05T00:13:16.987Z,25.30
2023-04-05T00:15:44.887Z,23.10
2023-04-05T00:18:21.990Z,25.30
2023-04-05T00:20:53.170Z,24.80
2023-04-05T00:23:22.929Z,24.40
2023-04-05T00:25:50.864Z,28.20
2023-04-05T00:28:18.854Z,24.50
2023-04-05T00:30:49.092Z,25.80
2023-04-05T00:33:26.246Z,25.10
2023-04-05T00:35:54.175Z,28.80
2023-04-05T00:38:25.000Z,28.90
2023-04-05T00:40:52.835Z,26.30
2023-04-05T00:43:20.920Z,29.90
2023-04-05T00:45:57.871Z,29.40
2023-04-05T00:48:28.673Z,25.10
2023-04-05T00:50:57.657Z,23.80
2023-04-05T00:53:29.030Z,23.00
2023-04-05T00:55:57.497Z,34.80
2023-04-05T00:58:25.328Z,36.10
2023-04-05T01:01:13.933Z,32.30
2023-04-05T01:03:45.049Z,35.40
2023-04-05T01:06:39.141Z,31.90
2023-04-05T01:09:09.915Z,24.70
2023-04-05T01:11:50.528Z,31.40
2023-04-05T01:14:32.284Z,34.70
2023-04-05T01:16:59.999Z,37.90
2023-04-05T01:19:33.345Z,45.50
2023-04-05T01:22:22.087Z,44.90
2023-04-05T01:25:11.084Z,47.50
2023-04-05T01:27:59.183Z,51.10
2023-04-05T01:30:31.424Z,41.30
2023-04-05T01:33:20.198Z,37.50
2023-04-05T01:35:59.486Z,34.00
2023-04-05T01:38:30.812Z,32.70
2023-04-05T01:41:07.854Z,31.80
2023-04-05T01:43:35.576Z,29.60
2023-04-05T01:46:03.660Z,26.40
2023-04-05T01:48:34.293Z,28.50
2023-04-05T01:51:09.898Z,33.60
2023-04-05T01:53:40.535Z,33.90
2023-04-05T01:56:08.354Z,75.30
2023-04-05T01:58:36.296Z,171.80
2023-04-05T02:01:04.377Z,174.80
2023-04-05T02:03:32.276Z,83.70
2023-04-05T02:06:00.101Z,80.40
2023-04-05T02:08:28.119Z,98.10
2023-04-05T02:10:56.191Z,165.10
2023-04-05T02:13:24.005Z,84.50
2023-04-05T02:15:51.985Z,34.70
2023-04-05T02:18:22.563Z,31.80
2023-04-05T02:20:53.998Z,31.80
2023-04-05T02:23:21.758Z,33.00
2023-04-05T02:25:49.477Z,31.10
2023-04-05T02:28:17.248Z,29.90
2023-04-05T02:30:45.220Z,28.40
2023-04-05T02:33:13.109Z,24.40
2023-04-05T02:35:41.436Z,22.60
2023-04-05T02:38:09.606Z,23.40
2023-04-05T02:40:37.689Z,25.80
2023-04-05T02:43:08.599Z,29.30
2023-04-05T02:45:36.384Z,23.40
2023-04-05T02:48:04.284Z,24.80
2023-04-05T02:50:32.391Z,22.10
2023-04-05T02:53:00.125Z,24.20
2023-04-05T02:55:30.636Z,26.30
2023-04-05T02:58:00.742Z,23.20
2023-04-05T03:00:29.055Z,23.00
2023-04-05T03:02:56.989Z,25.00
2023-04-05T03:05:24.800Z,22.80
2023-04-05T03:07:52.792Z,22.30
2023-04-05T03:10:22.632Z,20.60
2023-04-05T03:12:51.591Z,19.50
2023-04-05T03:15:19.495Z,19.40
2023-04-05T03:17:47.318Z,22.60
2023-04-05T03:20:15.206Z,20.00
2023-04-05T03:22:42.924Z,19.80
2023-04-05T03:25:11.443Z,18.50
2023-04-05T03:27:39.357Z,21.30
2023-04-05T03:30:07.705Z,18.00
2023-04-05T03:32:35.617Z,21.80
2023-04-05T03:35:03.606Z,22.50
2023-04-05T03:37:34.554Z,17.90
2023-04-05T03:40:02.494Z,20.60
2023-04-05T03:42:30.448Z,21.70
2023-04-05T03:44:59.929Z,17.60
2023-04-05T03:47:30.948Z,18.70
2023-04-05T03:49:58.724Z,18.10
2023-04-05T03:52:27.122Z,21.60
2023-04-05T03:54:57.959Z,23.90
2023-04-05T03:57:26.169Z,23.40
2023-04-05T03:59:56.709Z,27.80
2023-04-05T04:02:27.834Z,25.20
2023-04-05T04:04:59.241Z,24.30
2023-04-05T04:07:27.286Z,22.30
2023-04-05T04:09:56.647Z,26.30
2023-04-05T04:12:24.423Z,27.40
2023-04-05T04:14:52.279Z,28.00
2023-04-05T04:17:33.205Z,26.60
2023-04-05T04:20:01.315Z,23.60
2023-04-05T04:22:38.800Z,29.20
2023-04-05T04:25:09.996Z,27.90
2023-04-05T04:27:42.220Z,30.10
2023-04-05T04:30:11.256Z,23.60
2023-04-05T04:32:55.430Z,35.70
2023-04-05T04:35:28.023Z,32.90
2023-04-05T04:37:59.372Z,28.80
2023-04-05T04:40:32.622Z,25.20
2023-04-05T04:43:00.426Z,23.00
2023-04-05T04:45:28.350Z,22.90
2023-04-05T04:47:56.585Z,27.90
2023-04-05T04:50:24.359Z,18.90
2023-04-05T04:52:52.485Z,18.40
2023-04-05T04:55:25.280Z,21.00
2023-04-05T04:57:53.651Z,22.90
2023-04-05T05:00:22.524Z,17.60
2023-04-05T05:02:51.273Z,15.30
2023-04-05T05:05:28.322Z,16.20
2023-04-05T05:07:56.077Z,21.70
2023-04-05T05:10:23.938Z,18.60
2023-04-05T05:12:51.945Z,21.70
2023-04-05T05:15:20.392Z,23.70
2023-04-05T05:17:52.751Z,19.10
2023-04-05T05:20:20.557Z,20.60
2023-04-05T05:22:48.648Z,21.70
2023-04-05T05:25:16.800Z,19.20
2023-04-05T05:27:44.654Z,17.40
2023-04-05T05:30:12.827Z,17.30
2023-04-05T05:32:42.526Z,14.90
2023-04-05T05:35:10.683Z,14.40
2023-04-05T05:37:38.616Z,16.50
2023-04-05T05:40:06.915Z,16.50
2023-04-05T05:42:34.743Z,12.60
2023-04-05T05:45:04.533Z,15.30
2023-04-05T05:47:32.863Z,22.90
2023-04-05T05:50:00.763Z,25.40
2023-04-05T05:52:28.603Z,22.00
2023-04-05T05:54:56.436Z,12.20
2023-04-05T05:57:24.200Z,19.20
2023-04-05T05:59:51.941Z,18.20
2023-04-05T06:02:19.769Z,13.10
2023-04-05T06:04:47.985Z,16.30
2023-04-05T06:07:15.845Z,15.90
2023-04-05T06:09:45.428Z,14.60
2023-04-05T06:12:13.381Z,11.60
2023-04-05T06:14:41.295Z,12.50
2023-04-05T06:17:11.833Z,9.70
2023-04-05T06:19:39.622Z,11.30
2023-04-05T06:22:07.371Z,10.50
2023-04-05T06:24:35.352Z,12.30
2023-04-05T06:27:03.228Z,10.60
2023-04-05T06:29:31.393Z,12.70
2023-04-05T06:32:03.319Z,8.30
2023-04-05T06:34:31.451Z,11.60
2023-04-05T06:36:59.249Z,15.80
2023-04-05T06:39:27.044Z,9.60
2023-04-05T06:41:54.863Z,11.00
2023-04-05T06:44:22.725Z,11.50
2023-04-05T06:46:50.597Z,9.60
2023-04-05T06:49:18.652Z,10.20
2023-04-05T06:51:46.472Z,7.90
2023-04-05T06:54:14.369Z,10.20
2023-04-05T06:56:42.320Z,11.50
2023-04-05T06:59:10.149Z,9.70
2023-04-05T07:01:38.072Z,7.30
2023-04-05T07:04:06.242Z,10.30
2023-04-05T07:06:35.375Z,11.40
2023-04-05T07:09:05.861Z,10.30
2023-04-05T07:11:33.624Z,9.60
2023-04-05T07:14:01.775Z,9.60
2023-04-05T07:16:29.868Z,13.10
2023-04-05T07:19:01.113Z,10.50
2023-04-05T07:21:31.037Z,11.90
2023-04-05T07:24:03.313Z,9.00
2023-04-05T07:26:35.013Z,9.10
2023-04-05T07:29:03.324Z,12.20
2023-04-05T07:31:31.679Z,8.60
2023-04-05T07:33:59.812Z,10.10
2023-04-05T07:36:28.411Z,10.40
2023-04-05T07:38:57.072Z,16.00
2023-04-05T07:41:25.449Z,12.80
2023-04-05T07:44:01.917Z,10.30
2023-04-05T07:46:30.198Z,9.00
2023-04-05T07:48:58.441Z,8.50
2023-04-05T07:51:27.492Z,13.50
2023-04-05T07:53:59.696Z,9.20
2023-04-05T07:56:28.698Z,9.30
2023-04-05T07:58:56.429Z,9.30
2023-04-05T08:01:27.900Z,8.30
2023-04-05T08:03:58.949Z,9.70
2023-04-05T08:06:27.563Z,11.00
2023-04-05T08:08:55.709Z,8.50
2023-04-05T08:11:23.554Z,12.20
2023-04-05T08:13:51.444Z,7.70
2023-04-05T08:16:19.241Z,8.80
2023-04-05T08:18:46.971Z,9.60
2023-04-05T08:21:14.740Z,10.30
2023-04-05T08:23:42.569Z,7.40
2023-04-05T08:26:10.330Z,5.70
2023-04-05T08:28:38.441Z,6.20
2023-04-05T08:31:06.324Z,10.20
2023-04-05T08:33:34.069Z,7.70
2023-04-05T08:36:05.949Z,7.20
2023-04-05T08:38:34.110Z,6.90
2023-04-05T08:41:14.553Z,6.40
2023-04-05T08:43:51.662Z,9.10
2023-04-05T08:46:21.117Z,7.50
2023-04-05T08:48:49.014Z,9.10
2023-04-05T08:51:26.429Z,6.70
2023-04-05T08:53:54.155Z,8.20
2023-04-05T08:56:35.147Z,7.50
2023-04-05T08:59:07.411Z,7.90
2023-04-05T09:02:01.681Z,14.00
2023-04-05T09:04:32.082Z,10.20
2023-04-05T09:07:01.552Z,8.80
2023-04-05T09:09:32.666Z,5.90
2023-04-05T09:12:01.470Z,6.50
2023-04-05T09:14:30.288Z,6.10
2023-04-05T09:16:58.703Z,7.90
2023-04-05T09:19:26.580Z,9.80
2023-04-05T09:22:07.052Z,6.80
2023-04-05T09:24:42.250Z,5.70
2023-04-05T09:27:11.770Z,11.10
2023-04-05T09:29:40.735Z,6.20
2023-04-05T09:32:09.346Z,6.90
2023-04-05T09:34:37.628Z,5.00
2023-04-05T09:37:13.843Z,6.30
2023-04-05T09:39:42.604Z,6.70
2023-04-05T09:42:11.891Z,4.30
2023-04-05T09:44:54.342Z,5.70
2023-04-05T09:47:23.401Z,6.00
2023-04-05T09:49:51.555Z,7.00
2023-04-05T09:52:19.338Z,7.10
2023-04-05T09:54:47.481Z,7.80
2023-04-05T09:57:19.079Z,4.50
2023-04-05T09:59:47.384Z,7.00
2023-04-05T10:02:16.078Z,7.00
2023-04-05T10:04:45.207Z,8.80
2023-04-05T10:07:14.257Z,7.50
2023-04-05T10:09:42.811Z,6.40
2023-04-05T10:12:12.980Z,8.70
2023-04-05T10:14:40.923Z,6.60
2023-04-05T10:17:08.773Z,9.40
2023-04-05T10:19:39.288Z,7.80
2023-04-05T10:22:10.986Z,6.90
2023-04-05T10:24:49.784Z,8.10
2023-04-05T10:27:20.690Z,9.90
2023-04-05T10:29:59.053Z,7.00
2023-04-05T10:32:50.290Z,5.30
2023-04-05T10:35:24.831Z,11.60
2023-04-05T10:37:54.050Z,8.20
2023-04-05T10:40:22.663Z,7.00
2023-04-05T10:42:50.768Z,6.90
2023-04-05T10:45:22.036Z,7.20
2023-04-05T10:48:10.221Z,6.60
2023-04-05T10:50:38.901Z,6.30
2023-04-05T10:53:07.650Z,8.00
2023-04-05T10:55:36.102Z,10.70
2023-04-05T10:58:03.993Z,4.90
2023-04-05T11:00:32.227Z,6.90
2023-04-05T11:03:00.315Z,6.70
2023-04-05T11:05:37.860Z,5.50
2023-04-05T11:08:07.065Z,6.60
2023-04-05T11:10:36.659Z,9.40
2023-04-05T11:13:08.207Z,6.30
2023-04-05T11:15:36.600Z,5.00
2023-04-05T11:18:10.698Z,5.10
2023-04-05T11:20:44.753Z,7.80
2023-04-05T11:23:16.910Z,4.40
2023-04-05T11:25:48.481Z,7.50
2023-04-05T11:28:37.852Z,12.10
2023-04-05T11:31:12.515Z,10.70
2023-04-05T11:34:12.689Z,13.60
2023-04-05T11:36:46.157Z,11.60
2023-04-05T11:39:21.224Z,16.10
2023-04-05T11:42:06.550Z,11.10
2023-04-05T11:44:41.651Z,20.50
2023-04-05T11:47:11.435Z,12.20
2023-04-05T11:49:40.017Z,15.90
2023-04-05T11:52:14.235Z,9.10
2023-04-05T11:54:46.532Z,14.10
2023-04-05T11:57:22.980Z,11.50
2023-04-05T11:59:52.151Z,9.60
2023-04-05T12:02:20.532Z,12.60
2023-04-05T12:04:57.674Z,7.60
2023-04-05T12:07:26.727Z,8.80
2023-04-05T12:09:57.586Z,13.60
2023-04-05T12:12:25.658Z,9.40
2023-04-05T12:14:58.685Z,10.50
2023-04-05T12:17:46.841Z,10.30
2023-04-05T12:20:16.048Z,14.60
2023-04-05T12:22:44.631Z,9.20
2023-04-05T12:25:13.309Z,14.70
2023-04-05T12:27:41.472Z,15.70
2023-04-05T12:30:10.311Z,9.60
2023-04-05T12:32:47.288Z,11.50
2023-04-05T12:35:19.642Z,10.00
2023-04-05T12:37:47.664Z,9.60
2023-04-05T12:40:20.784Z,9.90
2023-04-05T12:42:48.587Z,13.30
2023-04-05T12:45:17.622Z,8.40
2023-04-05T12:48:03.341Z,13.00
2023-04-05T12:50:31.571Z,9.20
2023-04-05T12:53:00.579Z,8.90
2023-04-05T12:55:29.673Z,12.50
2023-04-05T12:58:01.251Z,11.90
2023-04-05T13:00:29.865Z,13.40
2023-04-05T13:02:58.504Z,9.90
2023-04-05T13:05:29.680Z,13.00
2023-04-05T13:07:58.570Z,17.00
2023-04-05T13:10:26.572Z,11.30
2023-04-05T13:12:54.560Z,10.60
2023-04-05T13:15:22.788Z,13.20
2023-04-05T13:17:52.176Z,11.50
2023-04-05T13:20:20.784Z,13.00
2023-04-05T13:22:48.731Z,10.90
2023-04-05T13:25:16.810Z,11.40
2023-04-05T13:27:44.924Z,18.40
2023-04-05T13:30:12.816Z,14.10
2023-04-05T13:32:41.572Z,18.50
2023-04-05T13:35:09.788Z,12.90
2023-04-05T13:37:37.985Z,18.00
2023-04-05T13:40:06.366Z,11.50
2023-04-05T13:42:34.205Z,11.10
2023-04-05T13:45:02.008Z,12.30
2023-04-05T13:47:29.830Z,11.50
2023-04-05T13:49:57.627Z,12.50
2023-04-05T13:52:26.397Z,10.30
2023-04-05T13:55:03.372Z,10.20
2023-04-05T13:57:32.361Z,9.80
2023-04-05T14:00:00.657Z,10.20
2023-04-05T14:02:28.912Z,10.90
2023-04-05T14:04:57.032Z,13.00
2023-04-05T14:07:25.042Z,11.20
2023-04-05T14:09:52.813Z,12.00
2023-04-05T14:12:20.798Z,10.10
2023-04-05T14:14:48.934Z,8.80
2023-04-05T14:17:17.157Z,11.70
2023-04-05T14:19:45.027Z,19.40
2023-04-05T14:22:12.840Z,11.50
2023-04-05T14:24:40.800Z,15.10
2023-04-05T14:27:08.644Z,12.70
2023-04-05T14:29:36.820Z,11.30
2023-04-05T14:32:04.906Z,10.70
2023-04-05T14:34:33.848Z,9.60
2023-04-05T14:37:04.200Z,11.20
2023-04-05T14:39:32.118Z,9.50
2023-04-05T14:42:00.123Z,12.70
2023-04-05T14:44:28.050Z,21.40
2023-04-05T14:46:55.793Z,16.50
2023-04-05T14:49:24.122Z,16.60
2023-04-05T14:51:51.987Z,15.20
2023-04-05T14:54:19.795Z,12.50
2023-04-05T14:56:47.612Z,21.20
2023-04-05T14:59:15.586Z,15.10
2023-04-05T15:01:45.551Z,12.90
2023-04-05T15:04:13.383Z,19.20
2023-04-05T15:06:42.335Z,13.90
2023-04-05T15:09:10.052Z,17.20
2023-04-05T15:11:39.298Z,13.10
2023-04-05T15:14:09.894Z,9.40
2023-04-05T15:16:44.146Z,17.60
2023-04-05T15:19:12.071Z,21.50
2023-04-05T15:21:40.616Z,18.30
2023-04-05T15:24:11.377Z,18.60
2023-04-05T15:26:40.940Z,18.00
2023-04-05T15:29:08.843Z,12.10
2023-04-05T15:31:36.849Z,15.10
2023-04-05T15:34:05.788Z,15.00
2023-04-05T15:36:36.324Z,11.60
2023-04-05T15:39:05.339Z,11.90
2023-04-05T15:41:33.665Z,17.80
2023-04-05T15:44:02.003Z,20.30
2023-04-05T15:46:30.855Z,12.20
2023-04-05T15:48:59.435Z,15.40
2023-04-05T15:51:27.938Z,17.70
2023-04-05T15:53:56.093Z,16.90
2023-04-05T15:56:23.930Z,13.90
2023-04-05T15:58:52.762Z,12.10
2023-04-05T16:01:20.841Z,11.80
2023-04-05T16:03:48.792Z,11.10
2023-04-05T16:06:16.731Z,11.20
2023-04-05T16:08:44.449Z,10.50
2023-04-05T16:11:12.245Z,10.80
2023-04-05T16:13:40.015Z,14.70
2023-04-05T16:16:07.989Z,22.20
2023-04-05T16:18:36.058Z,18.40
2023-04-05T16:21:03.951Z,16.40
2023-04-05T16:23:31.774Z,21.10
2023-04-05T16:25:59.520Z,16.00
2023-04-05T16:28:27.242Z,15.70
2023-04-05T16:30:56.088Z,18.10
2023-04-05T16:33:23.879Z,18.20
2023-04-05T16:35:51.866Z,18.80
2023-04-05T16:38:19.784Z,16.80
2023-04-05T16:40:47.589Z,15.20
2023-04-05T16:43:15.943Z,26.00
2023-04-05T16:45:44.352Z,20.60
2023-04-05T16:50:56.489Z,17.60
2023-04-05T16:53:24.832Z,20.70
2023-04-05T16:55:52.749Z,24.00
2023-04-05T16:58:20.862Z,29.00
2023-04-05T17:00:48.620Z,29.50
2023-04-05T17:03:16.722Z,36.50
2023-04-05T17:05:44.630Z,52.80
2023-04-05T17:08:12.386Z,49.60
2023-04-05T17:10:40.182Z,49.10
2023-04-05T17:13:08.066Z,56.00
2023-04-05T17:15:35.987Z,50.00
2023-04-05T17:18:03.929Z,46.10
2023-04-05T17:20:31.815Z,43.40
2023-04-05T17:23:01.135Z,36.50
2023-04-05T17:25:29.253Z,50.50
2023-04-05T17:27:57.042Z,64.40
2023-04-05T17:30:25.368Z,69.10
2023-04-05T17:32:53.541Z,71.60
2023-04-05T17:35:21.589Z,78.90
2023-04-05T17:37:49.537Z,78.30
2023-04-05T17:40:18.675Z,76.90
2023-04-05T17:42:46.736Z,77.20
2023-04-05T17:45:14.612Z,77.30
2023-04-05T17:47:42.597Z,98.90
2023-04-05T17:50:10.860Z,85.10
2023-04-05T17:52:38.768Z,88.90
2023-04-05T17:55:07.307Z,93.40
2023-04-05T17:57:35.449Z,128.00
2023-04-05T18:00:04.321Z,126.30
2023-04-05T18:02:32.656Z,113.30
2023-04-05T18:05:00.884Z,130.60
2023-04-05T18:07:28.805Z,153.00
2023-04-05T18:09:56.688Z,180.60
2023-04-05T18:12:24.682Z,190.20
2023-04-05T18:14:52.582Z,192.90
2023-04-05T18:17:20.677Z,190.40
2023-04-05T18:19:49.580Z,206.00
2023-04-05T18:22:17.384Z,182.40
2023-04-05T18:24:45.305Z,171.60
2023-04-05T18:27:13.118Z,161.10
2023-04-05T18:29:41.405Z,112.40
2023-04-05T18:32:10.066Z,104.10
2023-04-05T18:34:37.992Z,105.40
2023-04-05T18:37:05.833Z,115.10
2023-04-05T18:39:33.587Z,134.80
2023-04-05T18:42:02.875Z,162.20
2023-04-05T18:44:31.116Z,162.70
2023-04-05T18:46:59.011Z,161.80
2023-04-05T18:49:26.923Z,166.10
2023-04-05T18:51:56.014Z,146.60
2023-04-05T18:54:24.112Z,143.30
2023-04-05T18:56:52.070Z,137.70
2023-04-05T18:59:20.253Z,137.50
2023-04-05T19:01:48.140Z,146.90
2023-04-05T19:04:16.419Z,148.40
2023-04-05T19:06:44.443Z,152.10
2023-04-05T19:09:12.490Z,148.70
2023-04-05T19:11:40.484Z,132.40
2023-04-05T19:14:11.817Z,144.50
2023-04-05T19:16:39.854Z,143.40
2023-04-05T19:19:07.932Z,254.70
2023-04-05T19:21:36.485Z,260.50
2023-04-05T19:24:04.432Z,200.80
2023-04-05T19:26:32.352Z,213.50
2023-04-05T19:29:00.156Z,200.40
2023-04-05T19:31:28.068Z,210.20
2023-04-05T19:33:56.024Z,200.80
2023-04-05T19:36:23.851Z,176.70
2023-04-05T19:38:52.100Z,168.10
2023-04-05T19:41:20.415Z,152.90
2023-04-05T19:43:50.349Z,151.80
2023-04-05T19:46:19.203Z,141.70
2023-04-05T19:48:47.258Z,126.70
2023-04-05T19:51:17.245Z,116.00
2023-04-05T19:53:49.354Z,127.90
2023-04-05T19:56:19.629Z,114.90
2023-04-05T19:58:48.420Z,120.40
2023-04-05T20:01:42.492Z,113.60
2023-04-05T20:04:13.370Z,85.30
2023-04-05T20:06:42.449Z,84.30
2023-04-05T20:09:14.971Z,89.20
2023-04-05T20:11:49.722Z,91.80
2023-04-05T20:14:18.948Z,97.30
2023-04-05T20:16:49.677Z,107.40
2023-04-05T20:19:18.453Z,111.80
2023-04-05T20:21:46.300Z,99.10
2023-04-05T20:24:17.472Z,99.70
2023-04-05T20:26:46.082Z,81.30
2023-04-05T20:29:15.638Z,74.90
2023-04-05T20:31:43.802Z,75.60
2023-04-05T20:34:15.103Z,78.60
2023-04-05T20:36:50.402Z,86.10
2023-04-05T20:39:18.575Z,102.00
2023-04-05T20:41:46.683Z,107.00
2023-04-05T20:44:14.574Z,119.90
2023-04-05T20:46:42.426Z,115.90
2023-04-05T20:49:11.772Z,102.70
2023-04-05T20:51:42.659Z,90.80
2023-04-05T20:54:11.509Z,99.40
2023-04-05T20:56:39.676Z,100.50
2023-04-05T20:59:07.640Z,91.60
2023-04-05T21:01:37.898Z,95.00
2023-04-05T21:04:05.916Z,103.50
2023-04-05T21:06:36.517Z,108.70
2023-04-05T21:09:04.743Z,106.40
2023-04-05T21:11:32.620Z,99.60
2023-04-05T21:14:00.767Z,98.20
2023-04-05T21:16:28.834Z,75.50
2023-04-05T21:18:56.572Z,63.00
2023-04-05T21:21:24.376Z,59.60
2023-04-05T21:23:52.106Z,67.80
2023-04-05T21:26:19.898Z,59.50
2023-04-05T21:28:47.861Z,71.60
2023-04-05T21:31:15.708Z,72.60
2023-04-05T21:33:45.991Z,73.30
2023-04-05T21:36:14.195Z,74.90
2023-04-05T21:38:41.962Z,74.70
2023-04-05T21:41:09.749Z,81.60
2023-04-05T21:43:38.174Z,67.60
2023-04-05T21:46:05.921Z,73.60
2023-04-05T21:48:33.772Z,68.00
2023-04-05T21:51:01.572Z,58.30
2023-04-05T21:53:29.619Z,65.10
2023-04-05T21:55:57.336Z,77.40
2023-04-05T21:58:26.531Z,91.30
2023-04-05T22:00:54.381Z,98.30
2023-04-05T22:03:22.286Z,122.10
2023-04-05T22:05:50.406Z,128.80
2023-04-05T22:08:18.247Z,109.40
2023-04-05T22:10:46.130Z,97.00
2023-04-05T22:13:13.915Z,90.10
2023-04-05T22:15:44.133Z,87.20
2023-04-05T22:18:12.027Z,92.80
2023-04-05T22:20:39.934Z,91.70
2023-04-05T22:23:07.755Z,96.10
2023-04-05T22:25:35.504Z,100.70
2023-04-05T22:28:03.337Z,90.60
2023-04-05T22:30:42.844Z,89.30
2023-04-05T22:33:13.064Z,88.40
2023-04-05T22:35:42.049Z,94.10
2023-04-05T22:38:09.886Z,106.30
2023-04-05T22:40:37.604Z,93.20
2023-04-05T22:43:05.368Z,81.80
2023-04-05T22:45:33.429Z,74.00
2023-04-05T22:48:01.457Z,73.30
2023-04-05T22:50:29.233Z,73.20
2023-04-05T22:52:57.086Z,89.00
2023-04-05T22:55:24.836Z,74.40
2023-04-05T22:57:52.801Z,64.60
2023-04-05T23:00:20.581Z,68.80
2023-04-05T23:02:48.350Z,58.60
2023-04-05T23:05:16.097Z,60.50
2023-04-05T23:07:44.066Z,65.20
2023-04-05T23:10:11.840Z,82.20
2023-04-05T23:12:39.614Z,111.00
2023-04-05T23:15:07.777Z,175.20
2023-04-05T23:17:35.708Z,207.90
2023-04-05T23:20:06.970Z,153.40
2023-04-05T23:22:36.144Z,120.40
2023-04-05T23:25:04.551Z,127.10
2023-04-05T23:27:32.458Z,96.20
2023-04-05T23:30:00.336Z,135.30
2023-04-05T23:32:28.312Z,172.50
2023-04-05T23:34:56.324Z,139.70
2023-04-05T23:37:24.398Z,128.50
2023-04-05T23:39:52.207Z,97.30
2023-04-05T23:42:19.936Z,94.50
2023-04-05T23:44:47.701Z,92.40
2023-04-05T23:47:15.693Z,87.90
2023-04-05T23:49:43.712Z,83.10
2023-04-05T23:52:11.576Z,108.90
2023-04-05T23:54:39.327Z,110.10
2023-04-05T23:57:07.236Z,105.80
2023-04-05T23:59:35.098Z,105.40
